Time;durP1;ratioP1;P1;durP2;ratioP2;P2;SDS_P1;SDS_P2;PMS_P1;PMS_P2;Temp;Humidity;BMP_temperature;BMP_pressure;BME280_temperature;BME280_humidity;BME280_pressure;Samples;Min_cycle;Max_cycle;Signal;HPM_P1;HPM_P2
2023/08/17 00:02:13;;;;;;;5.13;4.20;;;;;;;;;;5036508;28;20072;-84
2023/08/17 00:04:40;;;;;;;4.40;4.10;;;;;;;;;;5036278;28;20048;-84
2023/08/17 00:07:08;;;;;;;7.45;4.10;;;;;;;;;;5036563;28;20060;-84
2023/08/17 00:09:35;;;;;;;4.47;4.10;;;;;;;;;;5036367;28;20129;-84
2023/08/17 00:12:03;;;;;;;4.32;3.95;;;;;;;;;;5035549;28;20041;-84
2023/08/17 00:14:32;;;;;;;4.40;3.83;;;;;;;;;;5035899;28;20105;-84
2023/08/17 00:16:59;;;;;;;4.10;3.88;;;;;;;;;;5036554;28;20076;-84
2023/08/17 00:19:26;;;;;;;5.03;4.50;;;;;;;;;;5019222;28;20080;-84
2023/08/17 00:21:55;;;;;;;4.60;4.10;;;;;;;;;;5036374;28;20420;-84
2023/08/17 00:24:22;;;;;;;6.25;4.00;;;;;;;;;;5047775;28;20101;-83
2023/08/17 00:26:49;;;;;;;4.20;3.85;;;;;;;;;;5050812;28;20107;-84
2023/08/17 00:29:17;;;;;;;6.65;4.32;;;;;;;;;;5034488;28;20050;-83
2023/08/17 00:31:44;;;;;;;4.38;4.07;;;;;;;;;;5033647;28;20056;-83
2023/08/17 00:34:12;;;;;;;5.82;4.80;;;;;;;;;;5030980;28;20482;-84
2023/08/17 00:36:40;;;;;;;4.43;4.03;;;;;;;;;;5011614;28;20041;-84
2023/08/17 00:39:07;;;;;;;5.05;4.00;;;;;;;;;;5035924;28;20132;-85
2023/08/17 00:41:35;;;;;;;4.43;4.13;;;;;;;;;;5017454;28;20058;-85
2023/08/17 00:44:02;;;;;;;5.85;4.55;;;;;;;;;;5019354;28;20053;-84
2023/08/17 00:46:30;;;;;;;4.75;4.45;;;;;;;;;;5018311;28;20045;-84
2023/08/17 00:48:58;;;;;;;4.32;4.03;;;;;;;;;;5018597;28;20068;-84
2023/08/17 00:51:26;;;;;;;4.95;4.55;;;;;;;;;;5018118;28;20049;-84
2023/08/17 00:53:56;;;;;;;6.10;4.13;;;;;;;;;;5017949;28;20095;-84
2023/08/17 00:56:24;;;;;;;4.70;4.30;;;;;;;;;;5017841;28;20029;-84
2023/08/17 00:58:51;;;;;;;5.13;4.45;;;;;;;;;;5018414;28;20041;-84
2023/08/17 01:01:20;;;;;;;4.80;4.13;;;;;;;;;;5017348;28;20046;-85
2023/08/17 01:03:47;;;;;;;4.93;4.22;;;;;;;;;;5017302;28;20053;-84
2023/08/17 01:06:16;;;;;;;4.70;4.30;;;;;;;;;;5017423;28;20079;-85
2023/08/17 01:08:44;;;;;;;4.65;4.28;;;;;;;;;;5017056;28;20053;-84
2023/08/17 01:11:14;;;;;;;4.95;4.45;;;;;;;;;;5035424;28;20133;-84
2023/08/17 01:13:49;;;;;;;5.53;4.50;;;;;;;;;;5008898;28;20045;-84
2023/08/17 01:16:22;;;;;;;4.93;4.53;;;;;;;;;;5016460;28;20160;-84
2023/08/17 01:18:50;;;;;;;6.00;4.55;;;;;;;;;;5017235;28;20380;-84
2023/08/17 01:21:18;;;;;;;4.50;4.10;;;;;;;;;;5033542;28;20073;-85
2023/08/17 01:23:46;;;;;;;4.57;4.20;;;;;;;;;;5016683;28;20045;-84
2023/08/17 01:26:15;;;;;;;4.53;4.18;;;;;;;;;;5015785;28;20309;-84
2023/08/17 01:28:46;;;;;;;4.95;4.55;;;;;;;;;;5032591;28;20068;-84
2023/08/17 01:31:31;;;;;;;9.65;4.72;;;;;;;;;;5032919;28;20053;-84
2023/08/17 01:34:04;;;;;;;5.10;4.15;;;;;;;;;;5016255;28;20103;-84
2023/08/17 01:36:40;;;;;;;5.30;4.40;;;;;;;;;;5032922;28;20049;-85
2023/08/17 01:39:07;;;;;;;4.95;4.35;;;;;;;;;;5030869;28;20412;-84
2023/08/17 01:41:35;;;;;;;4.60;4.30;;;;;;;;;;5034096;28;20069;-84
2023/08/17 01:44:05;;;;;;;5.00;4.70;;;;;;;;;;5016798;28;20041;-84
2023/08/17 01:46:33;;;;;;;8.20;4.78;;;;;;;;;;5016806;28;20111;-84
2023/08/17 01:49:01;;;;;;;4.97;4.45;;;;;;;;;;5016904;28;20132;-84
2023/08/17 01:51:30;;;;;;;4.82;4.10;;;;;;;;;;5013973;28;20056;-86
2023/08/17 01:53:57;;;;;;;6.90;5.10;;;;;;;;;;5015771;28;20464;-86
2023/08/17 01:56:25;;;;;;;5.95;4.30;;;;;;;;;;5034652;28;20450;-86
2023/08/17 01:58:52;;;;;;;5.30;4.45;;;;;;;;;;5016246;28;20046;-85
2023/08/17 02:01:22;;;;;;;4.88;4.43;;;;;;;;;;5015971;28;20110;-86
2023/08/17 02:03:49;;;;;;;4.75;4.40;;;;;;;;;;5034593;28;20049;-86
2023/08/17 02:06:17;;;;;;;4.65;4.13;;;;;;;;;;5034187;28;20136;-86
2023/08/17 02:08:44;;;;;;;4.13;3.85;;;;;;;;;;5013849;28;20044;-86
2023/08/17 02:11:12;;;;;;;3.90;3.60;;;;;;;;;;5062795;22;20045;-77
2023/08/17 02:13:40;;;;;;;4.57;4.28;;;;;;;;;;5026009;28;20053;-77
2023/08/17 02:16:08;;;;;;;5.10;4.30;;;;;;;;;;5026063;28;20045;-77
2023/08/17 02:18:35;;;;;;;4.68;4.22;;;;;;;;;;5031357;28;20049;-77
2023/08/17 02:21:03;;;;;;;4.35;4.05;;;;;;;;;;5025917;28;20065;-77
2023/08/17 02:23:31;;;;;;;5.28;4.82;;;;;;;;;;5025789;28;20104;-77
2023/08/17 02:25:58;;;;;;;5.10;4.70;;;;;;;;;;5025824;28;20447;-77
2023/08/17 02:28:26;;;;;;;7.82;4.80;;;;;;;;;;5017474;28;20064;-77
2023/08/17 02:30:57;;;;;;;5.07;4.60;;;;;;;;;;5025949;28;20477;-77
2023/08/17 02:33:27;;;;;;;4.80;4.47;;;;;;;;;;5021474;28;20046;-77
2023/08/17 02:35:54;;;;;;;6.82;4.95;;;;;;;;;;5007962;28;20037;-77
2023/08/17 02:38:22;;;;;;;6.63;4.60;;;;;;;;;;5026225;28;20127;-77
2023/08/17 02:40:50;;;;;;;4.90;4.50;;;;;;;;;;5021608;28;20049;-77
2023/08/17 02:43:17;;;;;;;4.78;4.40;;;;;;;;;;5013383;28;20049;-77
2023/08/17 02:45:45;;;;;;;4.80;4.30;;;;;;;;;;5023979;28;20553;-77
2023/08/17 02:48:12;;;;;;;4.75;4.35;;;;;;;;;;5018031;28;20120;-77
2023/08/17 02:50:41;;;;;;;4.60;4.30;;;;;;;;;;5026027;28;20076;-77
2023/08/17 02:53:08;;;;;;;4.90;4.38;;;;;;;;;;5027564;28;20061;-77
2023/08/17 02:55:36;;;;;;;5.25;4.85;;;;;;;;;;5069995;22;20053;-80
2023/08/17 02:58:03;;;;;;;5.72;4.35;;;;;;;;;;5035972;28;20042;-80
2023/08/17 03:00:31;;;;;;;4.90;4.50;;;;;;;;;;5020450;28;20060;-79
2023/08/17 03:02:58;;;;;;;4.95;4.63;;;;;;;;;;5030362;28;20057;-78
2023/08/17 03:05:26;;;;;;;10.50;4.57;;;;;;;;;;5029041;28;20053;-80
2023/08/17 03:07:54;;;;;;;5.50;4.38;;;;;;;;;;5019793;28;20057;-79
2023/08/17 03:10:24;;;;;;;5.78;5.20;;;;;;;;;;5029519;28;20053;-79
2023/08/17 03:12:52;;;;;;;5.25;4.85;;;;;;;;;;5019487;28;20109;-80
2023/08/17 03:15:19;;;;;;;7.70;4.82;;;;;;;;;;5016455;28;20053;-81
2023/08/17 03:17:47;;;;;;;6.13;5.05;;;;;;;;;;5014535;28;20058;-79
2023/08/17 03:20:15;;;;;;;5.82;5.20;;;;;;;;;;5013090;28;20466;-80
2023/08/17 03:22:42;;;;;;;8.52;5.05;;;;;;;;;;5027321;28;20449;-80
2023/08/17 03:25:09;;;;;;;5.72;5.20;;;;;;;;;;5035451;28;20053;-79
2023/08/17 03:27:37;;;;;;;8.40;5.97;;;;;;;;;;5033548;28;20057;-79
2023/08/17 03:30:05;;;;;;;9.43;5.32;;;;;;;;;;5017557;28;20049;-81
2023/08/17 03:32:33;;;;;;;8.85;5.40;;;;;;;;;;5020319;28;20049;-80
2023/08/17 03:35:00;;;;;;;5.65;4.82;;;;;;;;;;5029782;28;20112;-79
2023/08/17 03:37:28;;;;;;;5.65;5.15;;;;;;;;;;5019882;28;20049;-79
2023/08/17 03:39:55;;;;;;;10.00;5.82;;;;;;;;;;5028698;28;20060;-80
2023/08/17 03:42:23;;;;;;;6.07;5.57;;;;;;;;;;5020078;28;20525;-79
2023/08/17 03:44:51;;;;;;;6.03;5.50;;;;;;;;;;5025024;28;20056;-79
2023/08/17 03:47:19;;;;;;;7.90;6.00;;;;;;;;;;5028896;28;20128;-79
2023/08/17 03:49:47;;;;;;;7.05;5.63;;;;;;;;;;5028049;28;20131;-79
2023/08/17 03:52:14;;;;;;;8.05;5.82;;;;;;;;;;5011118;28;20126;-79
2023/08/17 03:54:41;;;;;;;7.72;5.93;;;;;;;;;;5025284;28;20514;-79
2023/08/17 03:57:09;;;;;;;9.50;6.13;;;;;;;;;;5029291;28;20561;-80
2023/08/17 03:59:36;;;;;;;9.95;6.47;;;;;;;;;;5019649;28;20049;-79
2023/08/17 04:02:04;;;;;;;6.35;5.75;;;;;;;;;;5028912;28;20103;-79
2023/08/17 04:04:31;;;;;;;7.13;5.80;;;;;;;;;;5028996;28;20072;-79
2023/08/17 04:06:59;;;;;;;7.82;7.03;;;;;;;;;;5027843;28;20124;-80
2023/08/17 04:09:27;;;;;;;10.15;6.35;;;;;;;;;;5015361;28;20472;-80
2023/08/17 04:11:55;;;;;;;9.02;6.35;;;;;;;;;;5018229;28;20136;-80
2023/08/17 04:14:23;;;;;;;7.13;5.95;;;;;;;;;;5029763;28;20053;-79
2023/08/17 04:16:50;;;;;;;9.98;7.07;;;;;;;;;;5020639;28;20049;-79
2023/08/17 04:19:18;;;;;;;7.70;6.78;;;;;;;;;;5031792;28;20051;-80
2023/08/17 04:21:46;;;;;;;9.65;7.40;;;;;;;;;;5026552;28;20053;-80
2023/08/17 04:24:14;;;;;;;9.73;7.47;;;;;;;;;;5023762;28;20057;-81
2023/08/17 04:26:42;;;;;;;9.40;7.05;;;;;;;;;;5019706;28;20309;-80
2023/08/17 04:29:09;;;;;;;10.68;7.07;;;;;;;;;;5029738;28;20096;-80
2023/08/17 04:31:37;;;;;;;8.10;7.07;;;;;;;;;;5001896;28;20132;-80
2023/08/17 04:34:05;;;;;;;8.25;6.70;;;;;;;;;;5020432;28;20045;-80
2023/08/17 04:36:32;;;;;;;7.63;6.70;;;;;;;;;;5017945;28;20053;-80
2023/08/17 04:39:00;;;;;;;7.88;6.53;;;;;;;;;;5017206;28;20034;-80
2023/08/17 04:41:27;;;;;;;7.57;6.68;;;;;;;;;;5029566;28;20111;-79
2023/08/17 04:43:55;;;;;;;9.55;6.78;;;;;;;;;;5022045;28;20037;-79
2023/08/17 04:46:22;;;;;;;6.72;6.13;;;;;;;;;;5007300;28;20323;-79
2023/08/17 04:48:50;;;;;;;6.90;6.18;;;;;;;;;;5010273;28;20121;-79
2023/08/17 04:51:17;;;;;;;7.43;6.10;;;;;;;;;;5008286;28;20060;-80
2023/08/17 04:53:48;;;;;;;6.38;5.78;;;;;;;;;;5004726;28;20612;-79
2023/08/17 04:56:16;;;;;;;6.65;5.97;;;;;;;;;;5010831;28;20049;-79
2023/08/17 04:58:43;;;;;;;8.15;5.30;;;;;;;;;;5010796;28;20095;-79
2023/08/17 05:01:13;;;;;;;7.68;6.38;;;;;;;;;;5012928;28;20041;-79
2023/08/17 05:03:40;;;;;;;6.03;5.53;;;;;;;;;;5015270;28;20096;-78
2023/08/17 05:06:08;;;;;;;11.15;6.43;;;;;;;;;;5008099;28;20049;-80
2023/08/17 05:08:36;;;;;;;6.78;6.18;;;;;;;;;;5009730;28;20053;-79
2023/08/17 05:11:04;;;;;;;6.72;6.05;;;;;;;;;;5003910;28;20054;-80
2023/08/17 05:13:32;;;;;;;6.88;6.28;;;;;;;;;;5017949;28;20084;-80
2023/08/17 05:16:03;;;;;;;7.93;6.07;;;;;;;;;;5009735;28;20049;-78
2023/08/17 05:18:31;;;;;;;9.52;6.40;;;;;;;;;;4998025;28;20124;-80
2023/08/17 05:20:58;;;;;;;6.57;5.97;;;;;;;;;;5008031;28;20041;-80
2023/08/17 05:23:26;;;;;;;7.68;6.45;;;;;;;;;;5019619;28;20060;-81
2023/08/17 05:25:53;;;;;;;9.82;6.90;;;;;;;;;;5011515;28;20045;-83
2023/08/17 05:28:21;;;;;;;8.00;6.15;;;;;;;;;;5029473;28;20046;-79
2023/08/17 05:30:49;;;;;;;9.07;6.80;;;;;;;;;;5025718;28;20099;-80
2023/08/17 05:33:16;;;;;;;7.03;6.32;;;;;;;;;;5008807;28;20088;-80
2023/08/17 05:35:44;;;;;;;7.22;6.05;;;;;;;;;;5015917;28;20056;-81
2023/08/17 05:38:11;;;;;;;7.00;6.40;;;;;;;;;;5027322;28;20049;-79
2023/08/17 05:40:39;;;;;;;7.10;6.50;;;;;;;;;;5012469;28;20045;-79
2023/08/17 05:43:06;;;;;;;6.90;6.30;;;;;;;;;;5038143;28;20049;-79
2023/08/17 05:45:36;;;;;;;6.63;6.13;;;;;;;;;;5012508;28;20136;-80
2023/08/17 05:48:06;;;;;;;6.43;5.82;;;;;;;;;;5016135;28;20115;-79
2023/08/17 05:50:34;;;;;;;6.75;5.40;;;;;;;;;;5037582;28;20058;-79
2023/08/17 05:53:01;;;;;;;6.15;5.60;;;;;;;;;;5032246;28;20088;-79
2023/08/17 05:55:29;;;;;;;5.63;5.13;;;;;;;;;;5037459;28;20475;-79
2023/08/17 05:57:56;;;;;;;5.78;5.28;;;;;;;;;;5032049;28;20384;-79
2023/08/17 06:00:24;;;;;;;5.63;5.22;;;;;;;;;;5019897;28;20136;-79
2023/08/17 06:02:52;;;;;;;8.18;5.80;;;;;;;;;;5026034;28;20484;-79
2023/08/17 06:05:19;;;;;;;7.63;5.72;;;;;;;;;;5027658;28;20064;-77
2023/08/17 06:07:47;;;;;;;8.57;6.22;;;;;;;;;;5026886;28;20041;-79
2023/08/17 06:10:14;;;;;;;9.18;6.05;;;;;;;;;;5014652;28;20057;-79
2023/08/17 06:12:41;;;;;;;5.30;4.80;;;;;;;;;;5030181;28;20124;-81
2023/08/17 06:15:09;;;;;;;5.25;4.85;;;;;;;;;;5036164;28;20052;-79
2023/08/17 06:17:36;;;;;;;6.43;5.13;;;;;;;;;;5033953;28;20076;-80
2023/08/17 06:20:05;;;;;;;8.10;5.07;;;;;;;;;;5033802;28;20526;-78
2023/08/17 06:22:32;;;;;;;7.57;4.95;;;;;;;;;;5035966;28;20450;-78
2023/08/17 06:24:59;;;;;;;4.82;4.53;;;;;;;;;;5038898;28;20119;-80
2023/08/17 06:27:27;;;;;;;7.63;5.03;;;;;;;;;;5039193;28;20092;-80
2023/08/17 06:29:56;;;;;;;5.25;4.85;;;;;;;;;;5035800;28;20478;-80
2023/08/17 06:32:23;;;;;;;5.40;5.00;;;;;;;;;;5036284;28;20084;-79
2023/08/17 06:34:50;;;;;;;5.35;4.90;;;;;;;;;;5037172;28;20752;-80
2023/08/17 06:37:18;;;;;;;5.40;4.93;;;;;;;;;;5033227;28;20116;-80
2023/08/17 06:39:45;;;;;;;5.57;4.88;;;;;;;;;;5039577;28;20051;-80
2023/08/17 06:42:13;;;;;;;7.97;5.97;;;;;;;;;;5038684;28;20089;-79
2023/08/17 06:44:40;;;;;;;5.05;4.55;;;;;;;;;;5013528;28;20049;-79
2023/08/17 06:47:08;;;;;;;5.30;4.80;;;;;;;;;;5004675;28;20053;-81
2023/08/17 06:49:35;;;;;;;4.97;4.57;;;;;;;;;;5030862;28;20053;-81
2023/08/17 06:52:03;;;;;;;4.82;4.43;;;;;;;;;;5039012;28;20238;-80
2023/08/17 06:54:32;;;;;;;4.97;4.68;;;;;;;;;;5038434;28;20033;-80
2023/08/17 06:56:59;;;;;;;5.20;4.45;;;;;;;;;;5034950;28;20087;-79
2023/08/17 06:59:27;;;;;;;4.90;4.47;;;;;;;;;;5035793;28;20049;-80
2023/08/17 07:01:54;;;;;;;5.05;4.68;;;;;;;;;;5029957;28;20045;-80
2023/08/17 07:04:21;;;;;;;5.63;5.18;;;;;;;;;;5029683;28;20096;-80
2023/08/17 07:06:49;;;;;;;5.43;4.85;;;;;;;;;;5030676;28;20058;-80
2023/08/17 07:09:17;;;;;;;5.22;4.85;;;;;;;;;;5032956;28;20514;-85
2023/08/17 07:11:44;;;;;;;5.75;4.82;;;;;;;;;;5028176;28;20050;-80
2023/08/17 07:14:12;;;;;;;6.07;5.57;;;;;;;;;;5029296;28;20129;-79
2023/08/17 07:16:39;;;;;;;5.28;4.75;;;;;;;;;;5027607;28;20084;-79
2023/08/17 07:19:07;;;;;;;6.72;4.35;;;;;;;;;;5031070;28;20474;-83
2023/08/17 07:21:34;;;;;;;4.80;4.40;;;;;;;;;;5028973;28;20099;-80
2023/08/17 07:24:12;;;;;;;5.65;4.65;;;;;;;;;;5040558;28;20069;-79
2023/08/17 07:26:39;;;;;;;4.85;4.55;;;;;;;;;;5034113;28;20059;-80
2023/08/17 07:29:07;;;;;;;5.35;4.57;;;;;;;;;;5028371;28;20483;-84
2023/08/17 07:31:37;;;;;;;5.70;5.20;;;;;;;;;;5037650;28;20486;-82
2023/08/17 07:34:05;;;;;;;5.75;5.10;;;;;;;;;;5015079;28;20037;-79
2023/08/17 07:36:33;;;;;;;5.93;4.63;;;;;;;;;;5038792;28;20152;-79
2023/08/17 07:39:01;;;;;;;5.00;4.68;;;;;;;;;;5022481;28;20535;-79
2023/08/17 07:41:28;;;;;;;4.88;4.47;;;;;;;;;;5036421;28;20048;-80
2023/08/17 07:43:56;;;;;;;4.50;4.20;;;;;;;;;;5019089;28;20496;-84
2023/08/17 07:46:23;;;;;;;4.90;4.50;;;;;;;;;;5039701;28;20079;-79
2023/08/17 07:48:51;;;;;;;5.15;4.65;;;;;;;;;;5016432;28;20124;-79
2023/08/17 07:51:18;;;;;;;7.57;4.90;;;;;;;;;;5024773;28;20484;-80
2023/08/17 07:53:45;;;;;;;4.88;4.50;;;;;;;;;;5039471;28;20037;-79
2023/08/17 07:56:13;;;;;;;5.90;4.70;;;;;;;;;;5046622;28;20064;-81
2023/08/17 07:58:41;;;;;;;5.07;4.68;;;;;;;;;;5038291;28;20451;-79
2023/08/17 08:01:08;;;;;;;4.88;4.57;;;;;;;;;;5032087;28;20060;-80
2023/08/17 08:03:36;;;;;;;5.20;4.70;;;;;;;;;;5033790;28;20046;-80
2023/08/17 08:06:03;;;;;;;5.22;4.57;;;;;;;;;;5035577;28;20054;-81
2023/08/17 08:08:31;;;;;;;4.85;4.40;;;;;;;;;;5033855;28;20705;-80
2023/08/17 08:10:59;;;;;;;4.60;4.20;;;;;;;;;;5030330;28;20078;-79
2023/08/17 08:13:26;;;;;;;5.05;4.35;;;;;;;;;;5034970;28;20050;-79
2023/08/17 08:15:54;;;;;;;4.68;4.28;;;;;;;;;;5035836;28;20049;-78
2023/08/17 08:18:21;;;;;;;5.57;4.10;;;;;;;;;;5022375;28;20559;-77
2023/08/17 08:20:49;;;;;;;5.05;3.92;;;;;;;;;;5004906;28;20029;-79
2023/08/17 08:23:16;;;;;;;4.20;3.90;;;;;;;;;;5028912;28;20462;-80
2023/08/17 08:25:44;;;;;;;5.35;4.03;;;;;;;;;;5011542;28;20049;-83
2023/08/17 08:28:11;;;;;;;4.57;4.28;;;;;;;;;;5029792;28;20057;-85
2023/08/17 08:30:39;;;;;;;4.32;4.00;;;;;;;;;;5033302;28;20053;-80
2023/08/17 08:33:07;;;;;;;5.55;5.05;;;;;;;;;;5031370;28;20052;-79
2023/08/17 08:35:34;;;;;;;5.05;4.65;;;;;;;;;;5033107;28;20515;-81
2023/08/17 08:38:02;;;;;;;6.32;4.28;;;;;;;;;;5031061;28;20562;-78
2023/08/17 08:40:30;;;;;;;4.50;4.20;;;;;;;;;;5028602;28;20483;-79
2023/08/17 08:42:58;;;;;;;6.43;4.53;;;;;;;;;;5031407;28;20550;-78
2023/08/17 08:45:28;;;;;;;5.05;4.65;;;;;;;;;;5038239;28;20049;-79
2023/08/17 08:47:56;;;;;;;5.15;4.70;;;;;;;;;;5037710;28;20049;-80
2023/08/17 08:50:26;;;;;;;4.93;4.53;;;;;;;;;;5030676;28;20273;-79
2023/08/17 08:53:00;;;;;;;4.75;4.40;;;;;;;;;;5033677;28;20060;-79
2023/08/17 08:55:30;;;;;;;4.57;3.97;;;;;;;;;;5043072;22;20090;-85
2023/08/17 08:57:58;;;;;;;4.53;3.80;;;;;;;;;;5011061;28;20145;-85
2023/08/17 09:00:26;;;;;;;4.57;4.28;;;;;;;;;;4986689;28;20054;-85
2023/08/17 09:02:54;;;;;;;4.30;3.90;;;;;;;;;;5011962;28;20053;-85
2023/08/17 09:05:22;;;;;;;4.72;4.20;;;;;;;;;;5011367;28;20060;-86
2023/08/17 09:07:50;;;;;;;5.20;4.20;;;;;;;;;;5009315;28;20046;-84
2023/08/17 09:10:18;;;;;;;5.70;4.78;;;;;;;;;;5010433;28;20073;-86
2023/08/17 09:12:47;;;;;;;6.88;4.80;;;;;;;;;;5011216;28;20104;-85
2023/08/17 09:15:15;;;;;;;4.20;4.00;;;;;;;;;;5014867;28;20490;-85
2023/08/17 09:17:43;;;;;;;4.72;4.30;;;;;;;;;;5015227;28;20104;-85
2023/08/17 09:20:10;;;;;;;4.65;4.25;;;;;;;;;;5009573;28;20057;-86
2023/08/17 09:22:39;;;;;;;4.25;3.95;;;;;;;;;;5018450;28;20112;-86
2023/08/17 09:25:07;;;;;;;5.10;4.40;;;;;;;;;;5000818;28;20073;-86
2023/08/17 09:27:34;;;;;;;4.38;3.97;;;;;;;;;;5019205;28;20049;-86
2023/08/17 09:30:06;;;;;;;4.47;4.20;;;;;;;;;;5015945;28;20052;-86
2023/08/17 09:32:38;;;;;;;5.10;4.60;;;;;;;;;;5019680;28;20492;-84
2023/08/17 09:35:06;;;;;;;9.10;4.50;;;;;;;;;;5017842;28;20515;-85
2023/08/17 09:37:34;;;;;;;4.80;4.50;;;;;;;;;;5019235;28;20112;-85
2023/08/17 09:40:01;;;;;;;5.25;4.70;;;;;;;;;;5009625;28;20038;-84
2023/08/17 09:42:29;;;;;;;5.00;4.60;;;;;;;;;;5009832;28;20128;-85
2023/08/17 09:45:01;;;;;;;5.00;4.60;;;;;;;;;;5009765;28;20054;-85
2023/08/17 09:47:29;;;;;;;4.70;4.30;;;;;;;;;;5009983;28;20042;-85
2023/08/17 09:49:57;;;;;;;6.57;4.50;;;;;;;;;;5009838;28;20052;-85
2023/08/17 09:52:25;;;;;;;4.38;4.18;;;;;;;;;;5009705;28;20073;-85
2023/08/17 09:54:54;;;;;;;4.72;4.32;;;;;;;;;;5010816;28;20423;-85
2023/08/17 09:57:22;;;;;;;4.47;4.15;;;;;;;;;;5011888;28;20053;-84
2023/08/17 09:59:54;;;;;;;4.53;4.22;;;;;;;;;;5018562;28;20613;-86
2023/08/17 10:02:23;;;;;;;4.70;4.30;;;;;;;;;;5023236;28;20402;-86
2023/08/17 10:04:52;;;;;;;4.38;4.00;;;;;;;;;;5014684;28;20095;-85
2023/08/17 10:07:21;;;;;;;4.47;4.18;;;;;;;;;;5014368;28;20096;-85
2023/08/17 10:10:03;;;;;;;5.40;4.93;;;;;;;;;;5012996;28;20092;-86
2023/08/17 10:12:34;;;;;;;4.65;4.35;;;;;;;;;;5007403;28;20059;-85
2023/08/17 10:15:11;;;;;;;4.85;4.53;;;;;;;;;;5013881;28;20116;-85
2023/08/17 10:17:44;;;;;;;4.75;4.40;;;;;;;;;;5013280;28;20499;-84
2023/08/17 10:20:12;;;;;;;4.88;4.57;;;;;;;;;;5015515;28;20038;-86
2023/08/17 10:22:59;;;;;;;4.85;4.50;;;;;;;;;;5013137;28;20142;-85
2023/08/17 10:25:28;;;;;;;4.65;4.25;;;;;;;;;;4997342;28;20037;-85
2023/08/17 10:27:55;;;;;;;4.57;4.28;;;;;;;;;;5014780;28;20060;-85
2023/08/17 10:30:26;;;;;;;5.32;4.88;;;;;;;;;;4998740;28;20041;-86
2023/08/17 10:32:56;;;;;;;5.05;4.45;;;;;;;;;;5014572;28;20076;-85
2023/08/17 10:35:24;;;;;;;4.30;4.00;;;;;;;;;;5014072;28;20376;-86
2023/08/17 10:37:52;;;;;;;4.38;3.97;;;;;;;;;;5013431;28;20045;-85
2023/08/17 10:40:26;;;;;;;4.43;4.13;;;;;;;;;;5013802;28;20050;-85
2023/08/17 10:42:56;;;;;;;4.38;4.07;;;;;;;;;;5014085;28;20129;-86
2023/08/17 10:45:28;;;;;;;4.33;4.13;;;;;;;;;;5012895;28;20045;-85
2023/08/17 10:48:01;;;;;;;4.30;4.00;;;;;;;;;;5013472;28;20289;-85
2023/08/17 10:50:28;;;;;;;4.68;4.28;;;;;;;;;;5011683;28;20456;-86
2023/08/17 10:52:56;;;;;;;4.35;4.05;;;;;;;;;;5008177;28;20471;-85
2023/08/17 10:55:36;;;;;;;4.35;4.05;;;;;;;;;;5013371;28;20046;-85
2023/08/17 10:58:08;;;;;;;4.57;4.28;;;;;;;;;;5012493;28;20088;-85
2023/08/17 11:00:43;;;;;;;4.30;4.00;;;;;;;;;;5013473;28;20046;-86
2023/08/17 11:03:18;;;;;;;4.25;4.00;;;;;;;;;;5018232;28;20457;-85
2023/08/17 11:05:55;;;;;;;4.40;4.10;;;;;;;;;;5013274;28;20120;-87
2023/08/17 11:08:40;;;;;;;4.53;4.10;;;;;;;;;;5011082;28;20077;-86
2023/08/17 11:11:15;;;;;;;4.65;4.22;;;;;;;;;;5013514;28;20133;-86
2023/08/17 11:13:44;;;;;;;4.13;3.83;;;;;;;;;;5015414;28;20057;-85
2023/08/17 11:16:13;;;;;;;4.32;3.80;;;;;;;;;;5016352;28;20076;-86
2023/08/17 11:18:45;;;;;;;3.58;3.38;;;;;;;;;;5009713;28;20050;-88
2023/08/17 11:21:15;;;;;;;4.28;3.53;;;;;;;;;;5014781;28;20049;-84
2023/08/17 11:23:45;;;;;;;3.97;3.67;;;;;;;;;;5014403;28;20053;-85
2023/08/17 11:26:16;;;;;;;3.55;3.35;;;;;;;;;;5012941;28;20492;-87
2023/08/17 11:28:44;;;;;;;4.05;3.65;;;;;;;;;;5013646;28;20068;-86
2023/08/17 11:31:15;;;;;;;3.72;3.17;;;;;;;;;;5012785;28;20069;-86
2023/08/17 11:33:42;;;;;;;4.47;3.70;;;;;;;;;;5016322;28;20056;-86
2023/08/17 11:36:10;;;;;;;3.17;2.97;;;;;;;;;;5012991;28;20504;-85
2023/08/17 11:38:38;;;;;;;4.20;3.22;;;;;;;;;;5013454;28;20042;-86
2023/08/17 11:41:08;;;;;;;2.97;2.78;;;;;;;;;;5010953;28;20066;-87
2023/08/17 11:43:38;;;;;;;3.80;3.45;;;;;;;;;;5012735;28;20052;-88
2023/08/17 11:46:06;;;;;;;3.38;3.08;;;;;;;;;;5012038;28;20142;-85
2023/08/17 11:48:34;;;;;;;3.58;3.08;;;;;;;;;;5011561;28;20397;-89
2023/08/17 11:51:03;;;;;;;2.97;2.83;;;;;;;;;;5011534;28;20058;-86
2023/08/17 11:53:35;;;;;;;3.00;2.85;;;;;;;;;;5012198;28;20050;-84
2023/08/17 11:56:02;;;;;;;3.10;2.90;;;;;;;;;;5012917;28;20042;-86
2023/08/17 11:58:46;;;;;;;2.95;2.80;;;;;;;;;;5004769;28;20233;-86
2023/08/17 12:01:15;;;;;;;2.97;2.78;;;;;;;;;;5012272;28;20163;-86
2023/08/17 12:03:43;;;;;;;;;;;;;;;;;;5012833;28;20498;-86
2023/08/17 12:06:16;;;;;;;2.85;2.65;;;;;;;;;;5011617;28;19925;-87
2023/08/17 12:08:47;;;;;;;3.05;2.80;;;;;;;;;;5003944;28;20049;-88
2023/08/17 12:11:19;;;;;;;3.97;3.10;;;;;;;;;;5012229;28;20065;-87
2023/08/17 12:13:53;;;;;;;3.83;2.83;;;;;;;;;;5012334;28;20046;-88
2023/08/17 12:16:21;;;;;;;5.07;2.95;;;;;;;;;;5011302;28;20547;-87
2023/08/17 12:18:49;;;;;;;3.20;3.00;;;;;;;;;;5010183;28;20046;-86
2023/08/17 12:21:23;;;;;;;3.40;3.10;;;;;;;;;;5009832;28;20038;-86
2023/08/17 12:23:51;;;;;;;3.45;3.20;;;;;;;;;;5011430;28;20050;-86
2023/08/17 12:26:22;;;;;;;2.63;2.45;;;;;;;;;;5011015;28;20060;-85
2023/08/17 12:28:49;;;;;;;;;;;;;;;;;;5000646;28;20044;-85
2023/08/17 12:31:21;;;;;;;2.78;2.58;;;;;;;;;;5010874;28;19935;-87
2023/08/17 12:33:51;;;;;;;3.35;2.80;;;;;;;;;;5010357;28;20072;-86
2023/08/17 12:36:20;;;;;;;5.70;5.30;;;;;;;;;;5012386;28;20525;-87
2023/08/17 12:38:48;;;;;;;3.22;2.90;;;;;;;;;;5011333;28;20108;-84
2023/08/17 12:41:16;;;;;;;2.90;2.70;;;;;;;;;;5012097;28;20120;-87
2023/08/17 12:43:43;;;;;;;3.00;2.80;;;;;;;;;;5011425;28;20427;-88
2023/08/17 12:46:11;;;;;;;3.35;2.83;;;;;;;;;;5012075;28;20600;-87
2023/08/17 12:48:39;;;;;;;3.33;3.00;;;;;;;;;;5011704;28;20100;-88
2023/08/17 12:51:06;;;;;;;2.95;2.75;;;;;;;;;;5010147;28;20029;-87
2023/08/17 12:53:34;;;;;;;3.03;2.70;;;;;;;;;;5011849;28;20092;-87
2023/08/17 12:56:02;;;;;;;2.97;2.67;;;;;;;;;;5011687;28;20053;-85
2023/08/17 12:58:29;;;;;;;3.28;2.90;;;;;;;;;;5010485;28;20050;-85
2023/08/17 13:00:57;;;;;;;2.60;2.50;;;;;;;;;;5013670;28;20137;-86
2023/08/17 13:03:24;;;;;;;2.83;2.60;;;;;;;;;;5017012;28;20399;-86
2023/08/17 13:05:54;;;;;;;3.22;2.97;;;;;;;;;;5013657;28;20509;-88
2023/08/17 13:08:24;;;;;;;;;;;;;;;;;;5017853;28;20076;-87
2023/08/17 13:10:52;;;;;;;2.97;2.67;;;;;;;;;;5011760;28;19921;-87
2023/08/17 13:13:22;;;;;;;2.85;2.63;;;;;;;;;;5000113;28;20127;-86
2023/08/17 13:15:53;;;;;;;3.40;3.10;;;;;;;;;;5014445;28;20041;-88
2023/08/17 13:18:20;;;;;;;2.50;2.40;;;;;;;;;;5019120;28;20100;-87
2023/08/17 13:20:47;;;;;;;4.25;2.80;;;;;;;;;;5010826;28;20148;-86
2023/08/17 13:23:23;;;;;;;6.30;2.78;;;;;;;;;;5010382;28;20052;-84
2023/08/17 13:25:51;;;;;;;2.72;2.63;;;;;;;;;;5003023;28;20050;-86
2023/08/17 13:28:21;;;;;;;3.00;2.80;;;;;;;;;;5010779;28;20046;-88
2023/08/17 13:30:48;;;;;;;2.63;2.53;;;;;;;;;;5010367;28;20593;-87
2023/08/17 13:33:18;;;;;;;2.40;2.30;;;;;;;;;;5010903;28;20054;-86
2023/08/17 13:35:48;;;;;;;3.28;2.40;;;;;;;;;;5011089;28;20467;-86
2023/08/17 13:38:15;;;;;;;2.80;2.60;;;;;;;;;;5010860;28;20072;-86
2023/08/17 13:40:43;;;;;;;2.90;2.60;;;;;;;;;;5010490;28;20488;-86
2023/08/17 13:43:13;;;;;;;2.55;2.45;;;;;;;;;;5008760;28;20038;-85
2023/08/17 13:45:40;;;;;;;3.00;2.45;;;;;;;;;;5001637;28;20491;-85
2023/08/17 13:48:08;;;;;;;2.72;2.55;;;;;;;;;;5014455;28;20073;-86
2023/08/17 13:50:38;;;;;;;3.13;2.67;;;;;;;;;;5016445;28;20034;-87
2023/08/17 13:53:05;;;;;;;2.92;2.30;;;;;;;;;;5016937;28;20050;-86
2023/08/17 13:55:33;;;;;;;3.03;2.70;;;;;;;;;;5015269;28;20463;-87
2023/08/17 13:58:00;;;;;;;2.80;2.60;;;;;;;;;;5016277;28;20038;-87
2023/08/17 14:00:30;;;;;;;2.55;2.45;;;;;;;;;;4998701;28;20053;-86
2023/08/17 14:02:57;;;;;;;2.80;2.60;;;;;;;;;;5014477;28;20038;-85
2023/08/17 14:05:25;;;;;;;5.05;2.88;;;;;;;;;;5009786;28;20053;-87
2023/08/17 14:07:52;;;;;;;3.40;2.78;;;;;;;;;;5009519;28;20050;-86
2023/08/17 14:10:21;;;;;;;2.80;2.60;;;;;;;;;;5009528;28;20423;-87
2023/08/17 14:13:07;;;;;;;3.85;2.50;;;;;;;;;;5098088;22;20049;-80
2023/08/17 14:15:35;;;;;;;2.58;2.38;;;;;;;;;;5051530;28;20048;-80
2023/08/17 14:18:03;;;;;;;2.50;2.40;;;;;;;;;;5034524;28;20387;-80
2023/08/17 14:20:31;;;;;;;3.28;2.70;;;;;;;;;;5052027;28;20041;-80
2023/08/17 14:22:58;;;;;;;2.90;2.50;;;;;;;;;;5052022;28;20061;-79
2023/08/17 14:25:26;;;;;;;2.58;2.38;;;;;;;;;;5052096;28;20063;-79
2023/08/17 14:27:59;;;;;;;2.78;2.65;;;;;;;;;;5051570;28;20080;-80
2023/08/17 14:30:26;;;;;;;;;;;;;;;;;;5034875;28;20057;-80
2023/08/17 14:32:54;;;;;;;3.53;2.90;;;;;;;;;;5040295;28;20267;-79
2023/08/17 14:35:27;;;;;;;3.00;2.80;;;;;;;;;;5050624;28;20168;-81
2023/08/17 14:37:57;;;;;;;4.82;2.72;;;;;;;;;;5051541;28;20049;-81
2023/08/17 14:40:25;;;;;;;6.35;2.70;;;;;;;;;;5052836;28;20076;-80
2023/08/17 14:42:53;;;;;;;2.95;2.40;;;;;;;;;;5051219;28;20400;-80
2023/08/17 14:45:21;;;;;;;2.58;2.47;;;;;;;;;;5029962;28;20064;-80
2023/08/17 14:47:49;;;;;;;5.13;3.13;;;;;;;;;;5056580;28;20061;-80
2023/08/17 14:50:16;;;;;;;7.00;2.97;;;;;;;;;;5054553;28;20474;-79
2023/08/17 14:52:43;;;;;;;3.03;2.70;;;;;;;;;;5055198;28;20045;-79